createdAt,value
2022-11-24T00:01:56.473Z,100256.50
2022-11-24T00:04:18.379Z,100245.06
2022-11-24T00:06:40.416Z,100241.16
2022-11-24T00:09:04.491Z,100245.84
2022-11-24T00:11:33.699Z,100248.59
2022-11-24T00:13:57.496Z,100239.25
2022-11-24T00:16:26.352Z,100250.66
2022-11-24T00:18:51.070Z,100251.50
2022-11-24T00:21:14.768Z,100252.50
2022-11-24T00:23:37.414Z,100261.06
2022-11-24T00:26:13.615Z,100256.72
2022-11-24T00:28:37.507Z,100262.69
2022-11-24T00:30:59.770Z,100266.91
2022-11-24T00:33:21.681Z,100262.53
2022-11-24T00:35:43.492Z,100265.44
2022-11-24T00:38:05.254Z,100273.31
2022-11-24T00:40:32.127Z,100273.31
2022-11-24T00:42:56.624Z,100279.00
2022-11-24T00:45:18.635Z,100274.50
2022-11-24T00:47:40.445Z,100280.00
2022-11-24T00:50:02.321Z,100290.19
2022-11-24T00:52:24.173Z,100284.38
2022-11-24T00:54:46.028Z,100276.25
2022-11-24T00:57:07.797Z,100275.31
2022-11-24T00:59:29.733Z,100279.41
2022-11-24T01:01:51.610Z,100273.91
2022-11-24T01:04:13.460Z,100284.41
2022-11-24T01:06:36.769Z,100279.56
2022-11-24T01:08:59.002Z,100283.31
2022-11-24T01:11:51.589Z,100284.41
2022-11-24T01:14:13.417Z,100292.84
2022-11-24T01:16:35.504Z,100292.53
2022-11-24T01:18:57.644Z,100292.53
2022-11-24T01:21:21.158Z,100299.16
2022-11-24T01:23:43.174Z,100289.31
2022-11-24T01:26:08.715Z,100296.75
2022-11-24T01:28:30.550Z,100296.56
2022-11-24T01:31:01.476Z,100303.69
2022-11-24T01:33:23.405Z,100307.56
2022-11-24T01:35:45.270Z,100312.25
2022-11-24T01:38:07.290Z,100313.38
2022-11-24T01:40:29.180Z,100308.69
2022-11-24T01:42:53.240Z,100299.66
2022-11-24T01:45:41.798Z,100314.19
2022-11-24T01:48:07.794Z,100307.09
2022-11-24T01:50:29.974Z,100307.09
2022-11-24T01:52:55.678Z,100303.22
2022-11-24T01:55:25.862Z,100309.19
2022-11-24T01:57:59.923Z,100311.13
2022-11-24T02:00:22.110Z,100315.00
2022-11-24T02:02:45.792Z,100313.19
2022-11-24T02:05:24.071Z,100319.16
2022-11-24T02:07:48.691Z,100315.63
2022-11-24T02:10:14.993Z,100325.47
2022-11-24T02:12:40.368Z,100339.19
2022-11-24T02:15:02.455Z,100328.53
2022-11-24T02:17:24.285Z,100320.44
2022-11-24T02:20:00.805Z,100329.16
2022-11-24T02:22:47.476Z,100334.00
2022-11-24T02:25:46.921Z,100335.16
2022-11-24T02:28:16.920Z,100345.97
2022-11-24T02:30:39.445Z,100343.22
2022-11-24T02:33:02.619Z,100339.97
2022-11-24T02:35:27.872Z,100345.94
2022-11-24T02:37:49.666Z,100349.00
2022-11-24T02:40:16.693Z,100345.81
2022-11-24T02:42:44.492Z,100349.69
2022-11-24T02:45:09.951Z,100354.69
2022-11-24T02:47:31.826Z,100351.94
2022-11-24T02:49:53.656Z,100361.47
2022-11-24T02:52:16.001Z,100354.06
2022-11-24T02:54:37.858Z,100362.28
2022-11-24T02:57:00.813Z,100350.34
2022-11-24T02:59:22.914Z,100356.16
2022-11-24T03:01:44.769Z,100358.91
2022-11-24T03:04:07.010Z,100362.00
2022-11-24T03:06:28.865Z,100373.75
2022-11-24T03:08:50.783Z,100363.09
2022-11-24T03:11:12.572Z,100368.59
2022-11-24T03:13:34.371Z,100374.44
2022-11-24T03:15:56.242Z,100371.69
2022-11-24T03:18:18.171Z,100373.59
2022-11-24T03:20:39.939Z,100360.38
2022-11-24T03:23:01.735Z,100373.16
2022-11-24T03:25:23.763Z,100379.91
2022-11-24T03:27:46.137Z,100370.41
2022-11-24T03:30:08.988Z,100375.22
2022-11-24T03:32:30.973Z,100367.47
2022-11-24T03:34:52.779Z,100378.91
2022-11-24T03:37:15.243Z,100378.59
2022-11-24T03:39:36.989Z,100381.66
2022-11-24T03:41:58.944Z,100380.38
2022-11-24T03:44:20.672Z,100390.53
2022-11-24T03:46:42.603Z,100392.34
2022-11-24T03:49:04.458Z,100385.25
2022-11-24T03:51:26.264Z,100386.88
2022-11-24T03:53:48.125Z,100390.41
2022-11-24T03:56:09.876Z,100393.63
2022-11-24T03:58:31.743Z,100396.03
2022-11-24T04:00:55.941Z,100396.03
2022-11-24T04:03:18.052Z,100399.56
2022-11-24T04:05:39.910Z,100403.47
2022-11-24T04:08:03.781Z,100399.25
2022-11-24T04:10:25.717Z,100400.84
2022-11-24T04:12:47.528Z,100402.16
2022-11-24T04:15:14.942Z,100403.91
2022-11-24T04:17:36.762Z,100403.28
2022-11-24T04:19:58.552Z,100406.94
2022-11-24T04:22:20.332Z,100398.06
2022-11-24T04:24:42.656Z,100404.53
2022-11-24T04:27:04.573Z,100410.66
2022-11-24T04:29:26.385Z,100403.84
2022-11-24T04:31:48.249Z,100400.41
2022-11-24T04:34:11.717Z,100405.59
2022-11-24T04:36:33.504Z,100402.53
2022-11-24T04:39:24.331Z,100409.13
2022-11-24T04:41:37.157Z,100414.31
2022-11-24T04:43:58.974Z,100421.28
2022-11-24T04:46:20.810Z,100421.28
2022-11-24T04:48:42.783Z,100430.31
2022-11-24T04:51:06.157Z,100439.03
2022-11-24T04:53:28.299Z,100450.13
2022-11-24T04:55:50.429Z,100448.34
2022-11-24T04:58:12.640Z,100451.09
2022-11-24T05:00:34.611Z,100459.66
2022-11-24T05:02:56.686Z,100455.00
2022-11-24T05:05:18.700Z,100463.38
2022-11-24T05:07:40.520Z,100450.78
2022-11-24T05:10:21.510Z,100454.84
2022-11-24T05:12:48.408Z,100458.25
2022-11-24T05:15:12.889Z,100473.44
2022-11-24T05:17:38.709Z,100477.31
2022-11-24T05:20:00.731Z,100478.13
2022-11-24T05:22:22.554Z,100480.88
2022-11-24T05:24:44.275Z,100485.22
2022-11-24T05:27:06.171Z,100489.13
2022-11-24T05:29:28.010Z,100488.44
2022-11-24T05:31:49.833Z,100495.06
2022-11-24T05:34:13.351Z,100497.16
2022-11-24T05:36:53.215Z,100499.91
2022-11-24T05:39:15.010Z,100509.75
2022-11-24T05:41:36.787Z,100507.50
2022-11-24T05:43:58.552Z,100506.03
2022-11-24T05:46:20.361Z,100501.81
2022-11-24T05:48:42.232Z,100503.91
2022-11-24T05:51:07.959Z,100515.38
2022-11-24T05:53:31.159Z,100513.91
2022-11-24T05:55:53.167Z,100520.69
2022-11-24T05:58:15.058Z,100519.88
2022-11-24T06:00:37.562Z,100520.03
2022-11-24T06:03:00.484Z,100523.25
2022-11-24T06:05:22.494Z,100528.72
2022-11-24T06:07:44.523Z,100538.59
2022-11-24T06:10:06.736Z,100546.84
2022-11-24T06:12:28.547Z,100545.22
2022-11-24T06:14:50.361Z,100546.38
2022-11-24T06:17:12.849Z,100554.59
2022-11-24T06:19:40.043Z,100549.13
2022-11-24T06:22:04.370Z,100556.88
2022-11-24T06:24:26.145Z,100561.56
2022-11-24T06:26:48.063Z,100573.34
2022-11-24T06:29:09.968Z,100584.34
2022-11-24T06:31:31.898Z,100583.22
2022-11-24T06:33:53.919Z,100582.41
2022-11-24T06:36:16.269Z,100585.63
2022-11-24T06:38:38.255Z,100597.91
2022-11-24T06:41:06.752Z,100601.13
2022-11-24T06:43:30.483Z,100604.34
2022-11-24T06:45:52.547Z,100607.44
2022-11-24T06:48:14.443Z,100612.91
2022-11-24T06:50:36.412Z,100610.84
2022-11-24T06:52:58.217Z,100625.84
2022-11-24T06:55:20.079Z,100617.63
2022-11-24T06:57:41.930Z,100629.09
2022-11-24T07:00:08.835Z,100631.84
2022-11-24T07:02:30.762Z,100627.94
2022-11-24T07:04:52.690Z,100630.06
2022-11-24T07:07:14.590Z,100634.41
2022-11-24T07:09:36.590Z,100646.53
2022-11-24T07:11:58.419Z,100654.78
2022-11-24T07:14:20.240Z,100665.78
2022-11-24T07:16:42.498Z,100665.44
2022-11-24T07:19:04.652Z,100664.94
2022-11-24T07:21:28.794Z,100669.66
2022-11-24T07:23:56.769Z,100674.34
2022-11-24T07:26:19.668Z,100682.91
2022-11-24T07:28:41.736Z,100677.25
2022-11-24T07:31:13.658Z,100684.84
2022-11-24T07:33:36.542Z,100694.22
2022-11-24T07:36:00.843Z,100696.00
2022-11-24T07:38:22.672Z,100706.84
2022-11-24T07:40:45.032Z,100715.41
2022-11-24T07:43:07.008Z,100711.84
2022-11-24T07:45:28.895Z,100719.28
2022-11-24T07:47:50.802Z,100721.69
2022-11-24T07:50:13.174Z,100722.50
2022-11-24T07:52:35.377Z,100731.88
2022-11-24T07:54:57.124Z,100735.75
2022-11-24T07:57:18.987Z,100748.38
2022-11-24T07:59:40.831Z,100745.31
2022-11-24T08:02:02.668Z,100751.75
2022-11-24T08:04:24.493Z,100749.50
2022-11-24T08:06:47.646Z,100753.84
2022-11-24T08:09:09.894Z,100767.59
2022-11-24T08:11:32.922Z,100764.53
2022-11-24T08:13:54.745Z,100775.81
2022-11-24T08:16:19.258Z,100776.00
2022-11-24T08:18:41.842Z,100784.41
2022-11-24T08:21:05.600Z,100787.16
2022-11-24T08:23:27.719Z,100790.22
2022-11-24T08:25:54.188Z,100804.78
2022-11-24T08:28:18.596Z,100806.06
2022-11-24T08:30:40.699Z,100805.25
2022-11-24T08:33:02.532Z,100811.88
2022-11-24T08:35:24.751Z,100820.13
2022-11-24T08:37:47.052Z,100817.06
2022-11-24T08:40:09.983Z,100819.31
2022-11-24T08:42:31.856Z,100819.13
2022-11-24T08:44:58.874Z,100831.28
2022-11-24T08:47:21.780Z,100834.34
2022-11-24T08:49:43.604Z,100836.41
2022-11-24T08:52:05.677Z,100840.44
2022-11-24T08:54:28.045Z,100846.75
2022-11-24T08:56:50.263Z,100840.91
2022-11-24T08:59:14.094Z,100844.81
2022-11-24T09:01:36.090Z,100853.53
2022-11-24T09:03:58.490Z,100855.16
2022-11-24T09:06:25.144Z,100859.53
2022-11-24T09:08:47.154Z,100848.97
2022-11-24T09:11:12.990Z,100860.47
2022-11-24T09:13:35.723Z,100863.22
2022-11-24T09:16:02.935Z,100860.97
2022-11-24T09:18:29.948Z,100871.31
2022-11-24T09:20:52.196Z,100866.78
2022-11-24T09:23:14.765Z,100877.13
2022-11-24T09:25:36.704Z,100881.97
2022-11-24T09:28:00.043Z,100890.69
2022-11-24T09:30:23.199Z,100896.38
2022-11-24T09:32:45.066Z,100894.91
2022-11-24T09:35:07.409Z,100900.09
2022-11-24T09:37:32.514Z,100907.69
2022-11-24T09:39:54.788Z,100902.66
2022-11-24T09:42:53.437Z,100905.56
2022-11-24T09:45:42.003Z,100908.31
2022-11-24T09:48:21.330Z,100913.63
2022-11-24T09:50:48.432Z,100923.34
2022-11-24T09:53:46.304Z,100914.28
2022-11-24T09:56:33.166Z,100917.03
2022-11-24T09:59:05.454Z,100919.94
2022-11-24T10:01:37.163Z,100914.28
2022-11-24T10:04:05.674Z,100927.06
2022-11-24T10:06:31.522Z,100928.16
2022-11-24T10:09:11.529Z,100942.88
2022-11-24T10:11:47.785Z,100937.19
2022-11-24T10:14:15.518Z,100943.66
2022-11-24T10:17:02.113Z,100949.00
2022-11-24T10:19:48.512Z,100948.00
2022-11-24T10:22:41.560Z,100947.94
2022-11-24T10:25:39.405Z,100959.94
2022-11-24T10:28:10.045Z,100961.53
2022-11-24T10:30:31.984Z,100960.34
2022-11-24T10:33:23.168Z,100965.22
2022-11-24T10:36:08.023Z,100968.44
2022-11-24T10:38:44.106Z,100969.25
2022-11-24T10:41:16.676Z,100964.69
2022-11-24T10:43:43.263Z,100970.47
2022-11-24T10:46:15.802Z,100974.19
2022-11-24T10:48:47.552Z,100977.91
2022-11-24T10:52:05.875Z,100990.34
2022-11-24T10:54:28.835Z,100978.63
2022-11-24T10:56:54.335Z,100988.53
2022-11-24T10:59:36.202Z,100991.78
2022-11-24T11:01:59.415Z,100990.63
2022-11-24T11:04:34.635Z,100990.44
2022-11-24T11:07:18.788Z,100985.19
2022-11-24T11:09:40.757Z,100986.13
2022-11-24T11:12:42.885Z,100982.50
2022-11-24T11:15:25.834Z,100981.63
2022-11-24T11:17:52.329Z,100988.75
2022-11-24T11:20:27.868Z,100992.47
2022-11-24T11:22:50.783Z,100995.25
2022-11-24T11:25:12.607Z,101002.47
2022-11-24T11:27:34.757Z,100985.91
2022-11-24T11:36:11.240Z,100986.88
2022-11-24T11:38:38.060Z,100977.56
2022-11-24T11:41:02.942Z,100987.13
2022-11-24T11:43:39.768Z,100983.06
2022-11-24T11:46:21.488Z,100970.19
2022-11-24T11:48:48.103Z,100976.97
2022-11-24T11:51:44.429Z,100979.53
2022-11-24T11:54:22.464Z,100977.22
2022-11-24T11:56:49.924Z,100984.72
2022-11-24T11:59:33.004Z,100983.56
2022-11-24T12:02:54.008Z,100988.75
2022-11-24T12:05:46.305Z,100987.94
2022-11-24T12:09:17.964Z,100986.47
2022-11-24T12:11:45.544Z,100984.28
2022-11-24T12:14:37.536Z,100985.22
2022-11-24T12:17:48.477Z,100988.78
2022-11-24T12:20:38.056Z,100981.31
2022-11-24T12:23:21.677Z,100986.50
2022-11-24T12:26:01.590Z,100981.09
2022-11-24T12:29:03.773Z,100994.72
2022-11-24T12:31:57.317Z,100985.38
2022-11-24T12:34:50.428Z,100980.78
2022-11-24T12:37:50.315Z,100984.03
2022-11-24T12:40:20.826Z,100991.63
2022-11-24T12:43:01.523Z,100985.41
2022-11-24T12:45:51.300Z,100996.59
2022-11-24T12:48:25.300Z,100996.25
2022-11-24T12:50:47.489Z,100987.75
2022-11-24T12:53:20.456Z,100995.00
2022-11-24T12:55:44.245Z,101000.19
2022-11-24T12:58:30.131Z,101003.75
2022-11-24T13:01:11.558Z,100996.94
2022-11-24T13:04:09.615Z,101006.50
2022-11-24T13:06:53.464Z,100997.78
2022-11-24T13:09:15.633Z,101008.69
2022-11-24T13:11:52.431Z,101011.94
2022-11-24T13:14:22.198Z,101006.41
2022-11-24T13:17:31.872Z,101002.47
2022-11-24T13:19:42.160Z,101014.34
2022-11-24T13:22:07.002Z,101000.53
2022-11-24T13:24:36.885Z,101011.59
2022-11-24T13:27:17.974Z,101011.69
2022-11-24T13:29:45.130Z,101005.00
2022-11-24T13:32:07.027Z,101006.97
2022-11-24T13:34:45.544Z,101008.94
2022-11-24T13:37:32.003Z,100999.03
2022-11-24T13:40:02.342Z,101000.06
2022-11-24T13:42:42.804Z,100995.19
2022-11-24T13:45:41.627Z,100998.19
2022-11-24T13:48:29.108Z,100992.22
2022-11-24T13:50:51.242Z,101001.97
2022-11-24T13:53:39.210Z,100997.63
2022-11-24T13:56:10.035Z,100995.00
2022-11-24T13:58:48.035Z,100998.19
2022-11-24T14:01:29.595Z,100992.34
2022-11-24T14:04:43.270Z,101003.72
2022-11-24T14:07:08.441Z,100999.69
2022-11-24T14:09:47.055Z,100988.16
2022-11-24T14:12:22.025Z,100984.13
2022-11-24T14:14:49.743Z,100984.50
2022-11-24T14:17:25.480Z,100980.56
2022-11-24T14:19:53.660Z,100988.75
2022-11-24T14:22:20.700Z,100986.69
2022-11-24T14:24:45.474Z,100990.78
2022-11-24T14:27:16.818Z,100989.38
2022-11-24T14:29:54.490Z,100980.97
2022-11-24T14:32:16.910Z,100983.97
2022-11-24T14:34:38.981Z,100981.88
2022-11-24T14:37:02.121Z,100977.84
2022-11-24T14:39:28.643Z,100982.28
2022-11-24T14:42:16.048Z,100985.13
2022-11-24T14:44:40.981Z,100994.28
2022-11-24T14:47:19.124Z,100980.88
2022-11-24T14:49:43.184Z,100989.88
2022-11-24T14:52:14.773Z,100975.50
2022-11-24T14:54:46.501Z,100980.41
2022-11-24T14:57:35.183Z,100990.03
2022-11-24T15:00:12.284Z,100992.06
2022-11-24T15:02:55.417Z,100991.31
2022-11-24T15:05:22.963Z,100991.03
2022-11-24T15:07:48.205Z,101006.59
2022-11-24T15:10:34.996Z,101007.13
2022-11-24T15:13:01.997Z,101006.84
2022-11-24T15:15:32.854Z,101010.63
2022-11-24T15:17:58.711Z,101013.56
2022-11-24T15:20:45.579Z,101021.97
2022-11-24T15:23:13.500Z,101016.53
2022-11-24T15:25:35.550Z,101013.47
2022-11-24T15:27:57.691Z,101022.22
2022-11-24T15:30:20.237Z,101015.75
2022-11-24T15:32:50.808Z,101018.38
2022-11-24T15:35:12.623Z,101015.31
2022-11-24T15:37:34.450Z,101035.09
2022-11-24T15:39:56.251Z,101032.03
2022-11-24T15:42:18.096Z,101031.69
2022-11-24T15:44:39.864Z,101029.59
2022-11-24T15:47:01.704Z,101022.31
2022-11-24T15:49:23.601Z,101027.66
2022-11-24T15:51:47.375Z,101030.59
2022-11-24T15:54:15.764Z,101036.72
2022-11-24T15:56:38.909Z,101038.03
2022-11-24T15:59:01.904Z,101041.75
2022-11-24T16:01:32.061Z,101036.09
2022-11-24T16:03:54.087Z,101042.09
2022-11-24T16:06:24.514Z,101038.69
2022-11-24T16:08:47.702Z,101040.28
2022-11-24T16:11:09.599Z,101036.41
2022-11-24T16:13:31.595Z,101025.91
2022-11-24T16:15:53.699Z,101037.22
2022-11-24T16:18:16.225Z,101033.97
2022-11-24T16:20:38.130Z,101028.78
2022-11-24T16:22:59.919Z,101034.28
2022-11-24T16:25:21.827Z,101041.22
2022-11-24T16:27:43.707Z,101037.19
2022-11-24T16:30:07.890Z,101038.63
2022-11-24T16:32:29.726Z,101034.94
2022-11-24T16:34:51.638Z,101036.69
2022-11-24T16:37:13.606Z,101039.25
2022-11-24T16:39:35.583Z,101039.09
2022-11-24T16:41:57.714Z,101040.88
2022-11-24T16:44:19.505Z,101037.16
2022-11-24T16:46:43.290Z,101038.09
2022-11-24T16:49:05.205Z,101043.25
2022-11-24T16:51:32.985Z,101038.22
2022-11-24T16:54:02.358Z,101041.09
2022-11-24T16:56:24.723Z,101047.56
2022-11-24T16:58:46.479Z,101047.69
2022-11-24T17:01:13.536Z,101044.44
2022-11-24T17:03:38.652Z,101047.53
2022-11-24T17:06:01.152Z,101045.91
2022-11-24T17:08:22.956Z,101037.66
2022-11-24T17:10:44.815Z,101037.34
2022-11-24T17:13:06.640Z,101036.84
2022-11-24T17:15:34.601Z,101042.34
2022-11-24T17:20:40.342Z,101035.84
2022-11-24T17:23:02.408Z,101042.16
2022-11-24T17:25:24.260Z,101040.53
2022-11-24T17:27:46.119Z,101039.75
2022-11-24T17:30:08.686Z,101032.28
2022-11-24T17:32:31.541Z,101037.78
2022-11-24T17:34:53.316Z,101044.09
2022-11-24T17:37:15.475Z,101043.78
2022-11-24T17:39:37.239Z,101041.03
2022-11-24T17:41:59.105Z,101043.44
2022-11-24T17:44:21.015Z,101042.97
2022-11-24T17:46:42.898Z,101041.69
2022-11-24T17:49:06.660Z,101051.53
2022-11-24T17:51:28.747Z,101050.38
2022-11-24T17:53:52.871Z,101055.09
2022-11-24T17:56:19.831Z,101043.44
2022-11-24T17:58:43.302Z,101064.03
2022-11-24T18:01:06.070Z,101047.84
2022-11-24T18:03:32.589Z,101046.91
2022-11-24T18:06:05.068Z,101049.31
2022-11-24T18:08:27.074Z,101051.25
2022-11-24T18:10:48.917Z,101054.34
2022-11-24T18:13:22.371Z,101047.69
2022-11-24T18:15:52.613Z,101048.19
2022-11-24T18:18:15.029Z,101049.50
2022-11-24T18:20:36.868Z,101046.44
2022-11-24T18:23:05.897Z,101047.75
2022-11-24T18:25:28.228Z,101045.59
2022-11-24T18:27:50.035Z,101044.81
2022-11-24T18:30:12.093Z,101042.84
2022-11-24T18:32:34.074Z,101042.69
2022-11-24T18:34:55.895Z,101046.25
2022-11-24T18:37:17.728Z,101044.66
2022-11-24T18:39:42.337Z,101045.44
2022-11-24T18:42:04.378Z,101042.34
2022-11-24T18:44:26.238Z,101046.25
2022-11-24T18:46:49.469Z,101041.91
2022-11-24T18:49:11.353Z,101031.50
2022-11-24T18:51:33.783Z,101038.16
2022-11-24T18:53:58.163Z,101035.72
2022-11-24T18:56:20.287Z,101033.28
2022-11-24T18:58:43.618Z,101039.91
2022-11-24T19:01:12.255Z,101036.19
2022-11-24T19:03:42.313Z,101030.81
2022-11-24T19:06:10.609Z,101036.63
2022-11-24T19:08:33.114Z,101037.56
2022-11-24T19:10:55.005Z,101027.22
2022-11-24T19:13:17.073Z,101028.97
2022-11-24T19:15:39.041Z,101040.59
2022-11-24T19:18:02.063Z,101044.44
2022-11-24T19:20:23.970Z,101030.25
2022-11-24T19:22:46.186Z,101034.41
2022-11-24T19:25:08.738Z,101042.47
2022-11-24T19:27:30.664Z,101040.66
2022-11-24T19:29:55.034Z,101029.78
2022-11-24T19:32:19.221Z,101031.22
2022-11-24T19:34:41.059Z,101036.09
2022-11-24T19:37:03.023Z,101038.03
2022-11-24T19:39:24.939Z,101042.22
2022-11-24T19:41:47.058Z,101033.97
2022-11-24T19:44:12.529Z,101031.38
2022-11-24T19:46:34.427Z,101026.50
2022-11-24T19:49:00.604Z,101018.56
2022-11-24T19:51:26.873Z,101035.34
2022-11-24T19:53:48.939Z,101018.06
2022-11-24T19:56:19.115Z,101024.06
2022-11-24T19:58:42.066Z,101023.25
2022-11-24T20:01:09.844Z,101023.75
2022-11-24T20:03:31.702Z,101017.78
2022-11-24T20:05:57.528Z,101029.84
2022-11-24T20:08:19.349Z,101025.50
2022-11-24T20:10:42.476Z,101031.00
2022-11-24T20:13:04.326Z,101026.94
2022-11-24T20:15:26.117Z,101030.50
2022-11-24T20:17:47.909Z,101037.13
2022-11-24T20:20:10.504Z,101032.22
2022-11-24T20:22:32.390Z,101029.81
2022-11-24T20:24:54.260Z,101032.84
2022-11-24T20:27:16.075Z,101023.31
2022-11-24T20:29:45.233Z,101027.19
2022-11-24T20:32:08.783Z,101021.72
2022-11-24T20:34:30.830Z,101020.41
2022-11-24T20:36:53.145Z,101023.16
2022-11-24T20:39:26.533Z,101029.75
2022-11-24T20:41:48.495Z,101032.31
2022-11-24T20:44:15.706Z,101028.44
2022-11-24T20:46:41.813Z,101033.13
2022-11-24T20:49:07.460Z,101032.19
2022-11-24T20:51:36.965Z,101031.84
2022-11-24T20:54:06.707Z,101032.34
2022-11-24T20:56:35.295Z,101018.03
2022-11-24T20:58:58.239Z,101029.97
2022-11-24T21:01:26.532Z,101022.75
2022-11-24T21:03:54.643Z,101011.66
2022-11-24T21:06:16.486Z,101016.50
2022-11-24T21:08:41.278Z,101018.00
2022-11-24T21:11:05.639Z,101013.00
2022-11-24T21:13:29.049Z,101017.91
2022-11-24T21:15:52.089Z,101021.16
2022-11-24T21:18:13.893Z,101026.00
2022-11-24T21:20:35.775Z,101019.88
2022-11-24T21:22:58.229Z,101013.28
2022-11-24T21:25:20.084Z,101011.03
2022-11-24T21:27:41.862Z,101012.34
2022-11-24T21:30:04.217Z,101014.75
2022-11-24T21:32:27.902Z,101010.88
2022-11-24T21:34:49.760Z,101004.25
2022-11-24T21:37:11.589Z,100996.53
2022-11-24T21:39:33.702Z,100996.81
2022-11-24T21:41:55.604Z,100999.91
2022-11-24T21:44:17.388Z,101005.88
2022-11-24T21:46:45.057Z,101001.22
2022-11-24T21:49:11.351Z,101000.88
2022-11-24T21:51:33.345Z,101002.50
2022-11-24T21:53:55.234Z,101009.59
2022-11-24T21:56:20.954Z,100992.81
2022-11-24T21:58:52.857Z,100997.19
2022-11-24T22:01:17.314Z,100981.50
2022-11-24T22:03:39.308Z,100985.38
2022-11-24T22:06:02.163Z,100987.84
2022-11-24T22:08:26.316Z,100994.13
2022-11-24T22:10:48.556Z,100980.41
2022-11-24T22:13:10.410Z,100988.63
2022-11-24T22:15:32.243Z,100977.66
2022-11-24T22:17:54.209Z,100970.50
2022-11-24T22:20:16.279Z,100967.78
2022-11-24T22:22:38.148Z,100963.41
2022-11-24T22:25:00.144Z,100961.47
2022-11-24T22:27:21.922Z,100959.88
2022-11-24T22:29:43.695Z,100954.69
2022-11-24T22:32:05.633Z,100951.94
2022-11-24T22:34:28.888Z,100958.56
2022-11-24T22:36:50.696Z,100948.38
2022-11-24T22:39:13.204Z,100947.88
2022-11-24T22:41:35.753Z,100947.38
2022-11-24T22:43:57.587Z,100941.91
2022-11-24T22:46:23.308Z,100932.84
2022-11-24T22:48:47.719Z,100940.28
2022-11-24T22:51:23.539Z,100937.53
2022-11-24T22:53:54.349Z,100934.00
2022-11-24T22:56:16.953Z,100930.91
2022-11-24T22:58:39.947Z,100926.22
2022-11-24T23:01:15.429Z,100925.59
2022-11-24T23:03:38.709Z,100936.59
2022-11-24T23:06:07.084Z,100930.75
2022-11-24T23:08:29.937Z,100932.41
2022-11-24T23:10:51.818Z,100941.44
2022-11-24T23:13:13.614Z,100932.91
2022-11-24T23:15:37.002Z,100938.53
2022-11-24T23:17:58.826Z,100934.84
2022-11-24T23:20:20.648Z,100935.00
2022-11-24T23:22:42.495Z,100935.50
2022-11-24T23:25:04.692Z,100930.50
2022-11-24T23:27:26.522Z,100930.69
2022-11-24T23:29:48.308Z,100932.78
2022-11-24T23:32:10.194Z,100934.88
2022-11-24T23:34:32.002Z,100932.63
2022-11-24T23:36:53.771Z,100930.38
2022-11-24T23:39:15.670Z,100929.72
2022-11-24T23:41:37.744Z,100934.56
2022-11-24T23:44:00.193Z,100933.97
2022-11-24T23:46:25.121Z,100936.88
2022-11-24T23:48:47.911Z,100934.59
2022-11-24T23:51:15.200Z,100937.00
2022-11-24T23:53:37.218Z,100935.91
2022-11-24T23:55:59.144Z,100931.22
2022-11-24T23:58:22.554Z,100933.97
